Time;durP1;ratioP1;P1;durP2;ratioP2;P2;SDS_P1;SDS_P2;PMS_P1;PMS_P2;Temp;Humidity;BMP_temperature;BMP_pressure;BME280_temperature;BME280_humidity;BME280_pressure;Samples;Min_cycle;Max_cycle;Signal;HPM_P1;HPM_P2
2022/08/18 04:51:40;;;;;;;;;18.00;16.25;;;;;20.44;68.81;101117.78;2372121;23;45441;-80
2022/08/18 04:54:22;;;;;;;;;24.25;17.50;;;;;20.39;69.16;101110.09;2369707;28;45695;-77
2022/08/18 04:55:32;;;;;;;;;16.75;16.00;;;;;20.39;69.08;101115.44;2360531;29;45443;-77
2022/08/18 04:56:43;;;;;;;;;17.75;14.25;;;;;20.38;68.84;101113.72;2365296;29;46541;-77
2022/08/18 04:57:53;;;;;;;;;18.25;18.25;;;;;20.40;69.18;101116.28;2356028;29;45172;-77
2022/08/18 04:59:07;;;;;;;;;20.50;17.00;;;;;20.40;69.06;101117.13;2361978;29;45541;-77
2022/08/18 05:00:18;;;;;;;;;18.50;17.00;;;;;20.38;69.00;101116.38;2364581;29;45487;-77
2022/08/18 05:01:30;;;;;;;;;16.50;16.50;;;;;20.39;68.91;101115.44;2367798;28;46306;-78
2022/08/18 05:02:41;;;;;;;;;17.50;14.50;;;;;20.40;68.97;101116.28;2372922;28;45714;-78
2022/08/18 05:03:53;;;;;;;;;18.75;16.75;;;;;20.38;69.08;101116.38;2371122;28;46446;-78
2022/08/18 05:05:04;;;;;;;;;16.00;15.75;;;;;20.40;68.93;101125.16;2372132;28;45444;-77
2022/08/18 05:06:15;;;;;;;;;17.50;16.00;;;;;20.38;69.00;101121.72;2366432;28;47279;-75
2022/08/18 05:07:25;;;;;;;;;20.75;13.75;;;;;20.37;68.78;101116.50;2373854;28;45375;-75
2022/08/18 05:08:36;;;;;;;;;14.25;13.25;;;;;20.35;68.81;101125.47;2367590;28;47073;-75
2022/08/18 05:09:47;;;;;;;;;12.75;12.75;;;;;20.33;69.15;101122.06;2365232;29;45369;-75
2022/08/18 05:10:58;;;;;;;;;17.00;15.25;;;;;20.34;69.51;101130.91;2365578;29;45317;-75
2022/08/18 05:12:12;;;;;;;;;18.75;16.00;;;;;20.34;69.19;101130.91;2365726;29;45315;-75
2022/08/18 05:13:24;;;;;;;;;17.50;15.00;;;;;20.35;68.93;101129.94;2371485;28;45272;-74
2022/08/18 05:14:35;;;;;;;;;12.00;12.00;;;;;20.33;69.31;101129.19;2373024;28;45172;-75
2022/08/18 05:16:02;;;;;;;;;17.00;16.25;;;;;20.32;69.18;101124.84;2371666;28;45571;-75
2022/08/18 05:17:15;;;;;;;;;16.50;15.25;;;;;20.33;69.11;101124.72;2367122;28;45224;-74
2022/08/18 05:18:25;;;;;;;;;16.50;14.50;;;;;20.33;69.02;101129.19;2374057;28;47579;-75
2022/08/18 05:19:36;;;;;;;;;18.25;14.50;;;;;20.31;69.24;101123.13;2374311;28;45445;-75
2022/08/18 05:20:47;;;;;;;;;17.25;15.00;;;;;20.33;69.16;101129.19;2374083;28;45348;-75
2022/08/18 05:21:58;;;;;;;;;22.50;16.00;;;;;20.31;68.86;101133.78;2375004;28;45258;-75
2022/08/18 05:23:08;;;;;;;;;19.50;17.25;;;;;20.30;69.10;101138.25;2374505;28;45573;-75
2022/08/18 05:24:20;;;;;;;;;9.50;9.50;;;;;20.30;69.18;101137.41;2372123;28;45270;-75
2022/08/18 05:25:30;;;;;;;;;15.50;14.75;;;;;20.29;69.06;101141.06;2369666;28;45406;-75
2022/08/18 05:26:41;;;;;;;;;22.00;14.75;;;;;20.29;69.03;101144.59;2362795;29;45260;-75
2022/08/18 05:27:51;;;;;;;;;19.50;16.25;;;;;20.31;69.54;101144.47;2360606;28;46376;-75
2022/08/18 05:29:03;;;;;;;;;20.00;16.50;;;;;20.31;69.18;101141.78;2366038;28;45255;-75
2022/08/18 05:30:14;;;;;;;;;19.00;17.00;;;;;20.30;69.40;101148.06;2363755;29;48003;-75
2022/08/18 05:31:27;;;;;;;;;17.25;16.25;;;;;20.29;69.10;101146.38;2349329;29;45252;-75
2022/08/18 05:32:42;;;;;;;;;15.75;13.25;;;;;20.28;69.06;101145.53;2358372;28;45575;-75
2022/08/18 05:33:56;;;;;;;;;14.75;13.75;;;;;20.30;69.39;101150.75;2358305;29;45305;-75
2022/08/18 05:35:12;;;;;;;;;19.75;16.75;;;;;20.28;69.21;101144.66;2363670;28;46407;-75
2022/08/18 05:36:48;;;;;;;;;19.50;16.25;;;;;20.30;69.33;101153.41;2363993;29;45429;-74
2022/08/18 05:38:24;;;;;;;;;19.75;17.50;;;;;20.27;69.43;101153.66;2370055;28;45550;-75
2022/08/18 05:40:05;;;;;;;;;18.75;16.50;;;;;20.29;69.50;101160.59;2374121;28;45217;-74
2022/08/18 05:41:38;;;;;;;;;18.50;17.00;;;;;20.28;69.74;101155.34;2367661;28;47519;-75
2022/08/18 05:42:50;;;;;;;;;20.25;18.75;;;;;20.28;69.78;101156.19;2373929;28;45507;-75
2022/08/18 05:44:01;;;;;;;;;18.00;17.25;;;;;20.28;69.77;101158.88;2365462;28;46529;-75
2022/08/18 05:45:15;;;;;;;;;14.00;13.25;;;;;20.28;69.93;101156.19;2356169;29;45768;-75
2022/08/18 05:46:53;;;;;;;;;17.00;16.50;;;;;20.30;69.75;101164.09;2361503;29;46996;-75
2022/08/18 05:48:04;;;;;;;;;20.50;19.25;;;;;20.30;69.88;101164.09;2355867;28;45463;-74
2022/08/18 05:49:14;;;;;;;;;15.75;15.00;;;;;20.31;69.68;101168.50;2350115;29;46494;-75
2022/08/18 05:50:25;;;;;;;;;23.00;18.75;;;;;20.34;69.83;101162.94;2360199;28;44656;-74
2022/08/18 05:51:49;;;;;;;;;20.00;17.75;;;;;20.35;69.86;101168.16;2366024;28;46676;-75
2022/08/18 05:53:07;;;;;;;;;17.25;15.50;;;;;20.37;69.76;101169.91;2369829;28;45312;-74
2022/08/18 05:57:39;;;;;;;;;21.25;15.25;;;;;20.35;69.67;101169.97;2366564;28;45537;-72
2022/08/18 05:58:54;;;;;;;;;23.75;21.75;;;;;20.33;69.81;101171.91;2366356;28;45290;-72
2022/08/18 06:00:09;;;;;;;;;22.00;18.75;;;;;20.34;69.55;101174.47;2373090;28;45401;-72
2022/08/18 06:01:25;;;;;;;;;18.50;17.25;;;;;20.37;69.88;101175.22;2366775;28;45465;-72
2022/08/18 06:02:55;;;;;;;;;22.50;21.75;;;;;20.38;70.09;101177.78;2367505;28;48310;-72
2022/08/18 06:04:15;;;;;;;;;28.00;23.75;;;;;20.40;69.90;101181.19;2374505;28;45430;-72
2022/08/18 06:05:30;;;;;;;;;23.25;21.00;;;;;20.43;70.10;101178.34;2366303;29;47082;-72
2022/08/18 06:06:43;;;;;;;;;26.25;23.25;;;;;20.44;70.18;101177.38;2360680;29;45316;-72
2022/08/18 06:08:00;;;;;;;;;22.75;21.50;;;;;20.45;69.89;101179.06;2366928;29;45421;-72
2022/08/18 06:09:22;;;;;;;;;26.50;22.50;;;;;20.49;70.04;101179.72;2368042;28;45294;-72
2022/08/18 06:10:33;;;;;;;;;29.00;25.00;;;;;20.52;69.83;101173.34;2375393;28;46976;-72
2022/08/18 06:11:43;;;;;;;;;26.25;24.00;;;;;20.53;69.97;101177.69;2369284;28;45417;-72
2022/08/18 06:12:57;;;;;;;;;24.25;24.25;;;;;20.54;69.87;101172.28;2359836;29;46355;-72
2022/08/18 06:14:08;;;;;;;;;28.75;23.00;;;;;20.56;69.94;101186.38;2367404;28;45368;-71
2022/08/18 06:15:56;;;;;;;;;23.00;23.00;;;;;20.58;69.76;101180.91;2366938;29;46510;-72
2022/08/18 06:17:25;;;;;;;;;26.75;24.50;;;;;20.60;69.90;101188.78;2374400;28;45512;-72
2022/08/18 06:18:44;;;;;;;;;29.00;26.00;;;;;20.61;69.87;101180.69;2375477;28;45240;-74
2022/08/18 06:20:13;;;;;;;;;27.75;26.25;;;;;20.61;70.00;101175.34;2366234;28;44845;-75
2022/08/18 06:21:45;;;;;;;;;24.50;24.25;;;;;20.63;70.17;101181.44;2370562;28;46473;-75
2022/08/18 06:23:13;;;;;;;;;27.00;22.75;;;;;20.63;69.94;101178.78;2375914;28;45408;-74
2022/08/18 06:24:41;;;;;;;;;26.00;23.50;;;;;20.65;70.13;101187.53;2368725;28;47667;-75
2022/08/18 06:25:58;;;;;;;;;26.75;21.25;;;;;20.66;70.14;101181.25;2375117;28;45248;-75
2022/08/18 06:27:17;;;;;;;;;26.75;24.75;;;;;20.66;70.09;101186.59;2370835;28;45463;-74
2022/08/18 06:28:42;;;;;;;;;28.75;27.00;;;;;20.68;70.21;101197.16;2376186;28;45260;-74
2022/08/18 06:30:18;;;;;;;;;27.50;25.75;;;;;20.72;70.60;101197.81;2374117;28;46841;-75
2022/08/18 06:31:54;;;;;;;;;31.75;30.00;;;;;20.73;70.11;101188.81;2361028;29;45424;-75
2022/08/18 06:33:19;;;;;;;;;30.25;26.75;;;;;20.78;70.58;101194.69;2350726;29;46748;-75
2022/08/18 06:34:49;;;;;;;;;34.75;31.25;;;;;;;;2352373;29;44724;-75
2022/08/18 06:36:15;;;;;;;;;30.00;27.50;;;;;20.82;70.59;101193.50;2362125;28;45505;-75
2022/08/18 06:39:20;;;;;;;;;39.00;32.75;;;;;20.92;69.97;101193.72;2367840;28;45464;-75
2022/08/18 06:40:30;;;;;;;;;41.25;33.75;;;;;20.92;69.81;101199.94;2374978;28;45425;-75
2022/08/18 06:41:45;;;;;;;;;40.25;34.75;;;;;20.96;69.37;101200.56;2369280;28;46238;-76
2022/08/18 06:42:55;;;;;;;;;42.00;34.25;;;;;20.99;69.48;101194.16;2366835;29;44689;-76
2022/08/18 06:44:11;;;;;;;;;38.25;33.50;;;;;21.02;69.81;101194.81;2366628;29;46270;-76
2022/08/18 06:45:31;;;;;;;;;39.75;35.75;;;;;21.06;69.41;101198.16;2367200;28;45158;-72
2022/08/18 06:46:47;;;;;;;;;43.25;34.50;;;;;21.09;69.17;101194.38;2367773;28;48114;-73
2022/08/18 06:48:15;;;;;;;;;35.75;30.25;;;;;21.11;69.35;101197.81;2364419;28;45488;-73
2022/08/18 06:49:39;;;;;;;;;44.50;35.75;;;;;21.17;69.23;101199.19;2362232;28;46552;-73
2022/08/18 06:50:54;;;;;;;;;43.75;35.50;;;;;21.20;69.38;101201.63;2375106;28;45226;-73
2022/08/18 06:52:22;;;;;;;;;43.75;35.00;;;;;21.23;69.05;101204.09;2374977;28;46599;-73
2022/08/18 06:53:49;;;;;;;;;45.00;36.50;;;;;21.28;69.26;101206.44;2367685;28;45164;-73
2022/08/18 06:55:03;;;;;;;;;38.25;31.00;;;;;21.32;69.12;101210.59;2356553;29;48550;-74
2022/08/18 06:56:36;;;;;;;;;42.00;33.50;;;;;21.35;69.01;101205.91;2359720;28;45283;-73
2022/08/18 06:57:56;;;;;;;;;41.00;33.75;;;;;21.37;68.91;101203.09;2373086;28;45551;-73
2022/08/18 06:59:13;;;;;;;;;45.25;36.25;;;;;21.39;67.72;101206.50;2366878;28;44856;-74
2022/08/18 07:00:30;;;;;;;;;47.25;36.25;;;;;21.39;68.55;101211.00;2361539;29;46180;-74
2022/08/18 07:01:41;;;;;;;;;47.50;39.25;;;;;21.38;68.24;101210.16;2363401;28;45263;-74
2022/08/18 07:02:59;;;;;;;;;43.25;34.50;;;;;21.40;67.89;101210.03;2367172;28;45482;-74
2022/08/18 07:04:29;;;;;;;;;47.75;36.50;;;;;21.42;67.68;101213.47;2369923;28;45147;-74
2022/08/18 07:06:00;;;;;;;;;41.50;33.75;;;;;21.44;67.90;101211.53;2375072;28;46538;-74
2022/08/18 07:07:32;;;;;;;;;41.75;36.00;;;;;21.43;67.47;101217.84;2371156;28;45550;-74
2022/08/18 07:08:43;;;;;;;;;41.75;35.75;;;;;21.46;67.21;101214.94;2370748;28;45278;-74
2022/08/18 07:09:54;;;;;;;;;44.75;36.75;;;;;21.46;67.25;101209.59;2369956;28;44723;-74
2022/08/18 07:11:24;;;;;;;;;50.00;37.50;;;;;21.49;67.17;101217.41;2366434;28;45569;-74
2022/08/18 07:12:35;;;;;;;;;50.00;38.50;;;;;21.49;67.53;101212.06;2372190;28;45401;-74
2022/08/18 07:13:48;;;;;;;;;47.25;38.25;;;;;21.52;67.15;101214.50;2372748;28;45443;-74
2022/08/18 07:15:02;;;;;;;;;42.25;34.75;;;;;21.52;67.23;101214.50;2366698;28;45254;-74
2022/08/18 07:16:22;;;;;;;;;43.00;36.25;;;;;21.54;67.52;101217.94;2367094;28;46051;-73
2022/08/18 07:17:38;;;;;;;;;46.33;37.00;;;;;21.53;66.76;101216.19;2366522;29;45244;-73
2022/08/18 07:18:50;;;;;;;;;47.75;38.50;;;;;21.53;67.05;101221.56;2366426;28;45657;-74
2022/08/18 07:20:19;;;;;;;;;51.25;39.25;;;;;21.53;67.22;101216.19;2370095;28;44672;-74
2022/08/18 07:21:32;;;;;;;;;49.25;37.50;;;;;21.55;67.35;101219.66;2372192;28;46133;-74
2022/08/18 07:23:01;;;;;;;;;50.50;38.75;;;;;21.59;67.59;101217.59;2366801;28;44852;-74
2022/08/18 07:24:29;;;;;;;;;40.75;34.25;;;;;21.64;67.58;101222.59;2372618;28;45668;-74
2022/08/18 07:25:44;;;;;;;;;47.25;35.75;;;;;21.66;68.13;101209.97;2374055;28;44708;-74
2022/08/18 07:27:13;;;;;;;;;40.50;36.25;;;;;21.72;67.67;101209.53;2366635;28;46616;-74
2022/08/18 07:28:37;;;;;;;;;46.25;36.00;;;;;21.76;68.01;101216.34;2356615;29;45253;-74
2022/08/18 07:30:06;;;;;;;;;46.50;37.25;;;;;21.80;67.93;101211.66;2363089;28;45431;-74
2022/08/18 07:31:41;;;;;;;;;48.00;36.00;;;;;21.83;67.61;101215.91;2374409;28;45430;-73
2022/08/18 07:33:20;;;;;;;;;45.00;36.75;;;;;21.80;66.74;101208.97;2366452;29;46130;-74
2022/08/18 07:34:35;;;;;;;;;46.50;36.50;;;;;21.80;66.57;101211.66;2359707;29;45463;-74
2022/08/18 07:35:59;;;;;;;;;47.50;36.00;;;;;21.82;66.64;101209.72;2361699;28;46350;-74
2022/08/18 07:37:31;;;;;;;;;45.75;37.00;;;;;21.86;66.96;101215.66;2374188;28;44768;-74
2022/08/18 07:38:52;;;;;;;;;41.00;34.25;;;;;21.85;67.43;101204.13;2369270;28;48136;-74
2022/08/18 07:40:21;;;;;;;;;47.75;37.00;;;;;21.90;67.74;101214.53;2369222;28;45248;-74
2022/08/18 07:41:47;;;;;;;;;48.00;40.50;;;;;21.92;66.93;101209.91;2366337;29;46805;-74
2022/08/18 07:43:16;;;;;;;;;50.00;38.25;;;;;21.94;66.72;101207.97;2366477;29;44736;-74
2022/08/18 07:44:53;;;;;;;;;46.75;36.50;;;;;21.98;67.22;101214.78;2367136;28;45625;-73
2022/08/18 07:46:20;;;;;;;;;42.25;33.50;;;;;22.02;67.13;101215.44;2365420;29;45347;-73
2022/08/18 07:47:56;;;;;;;;;41.25;35.75;;;;;22.06;66.82;101210.69;2365733;28;45388;-73
2022/08/18 07:49:07;;;;;;;;;46.25;38.00;;;;;22.11;66.79;101211.19;2368159;28;45685;-73
2022/08/18 07:50:17;;;;;;;;;46.00;38.50;;;;;22.15;66.63;101213.53;2366288;29;45421;-73
2022/08/18 07:51:46;;;;;;;;;48.75;37.75;;;;;22.23;66.36;101229.00;2369580;28;45393;-73
2022/08/18 07:53:35;;;;;;;;;49.75;36.75;;;;;22.28;66.52;101222.44;2375390;28;45501;-76
2022/08/18 07:55:07;;;;;;;;;54.00;40.50;;;;;22.35;65.98;101223.69;2379732;28;45458;-77
2022/08/18 07:56:56;;;;;;;;;48.75;37.75;;;;;22.37;65.82;101227.97;2384605;28;46381;-77
2022/08/18 07:58:46;;;;;;;;;48.25;41.00;;;;;22.42;65.36;101232.97;2384686;28;45456;-77
2022/08/18 08:00:22;;;;;;;;;43.50;36.50;;;;;22.45;65.65;101232.75;2380878;28;45571;-77
2022/08/18 08:01:43;;;;;;;;;48.75;39.75;;;;;22.46;65.27;101222.88;2384069;28;45216;-77
2022/08/18 08:03:22;;;;;;;;;54.00;42.25;;;;;22.51;65.40;101233.25;2383826;28;45584;-77
2022/08/18 08:04:47;;;;;;;;;52.75;40.75;;;;;22.52;65.11;101230.44;2382378;28;45037;-77
2022/08/18 08:06:08;;;;;;;;;48.75;41.00;;;;;22.53;65.33;101226.81;2379963;28;45420;-77
2022/08/18 18:47:58;;;;;;;;;15.25;14.25;;;;;27.70;43.02;101188.59;2372408;28;46410;-78
2022/08/18 18:49:21;;;;;;;;;14.00;14.00;;;;;27.66;43.08;101184.50;2379336;28;45388;-79
2022/08/18 18:51:02;;;;;;;;;19.50;19.50;;;;;27.65;43.05;101190.91;2382013;28;45491;-78
2022/08/18 18:52:22;;;;;;;;;20.75;17.75;;;;;27.62;43.18;101199.31;2380314;28;45272;-79
2022/08/18 18:54:01;;;;;;;;;21.75;18.50;;;;;27.58;43.53;101195.22;2384346;28;44637;-78
2022/08/18 18:55:26;;;;;;;;;23.00;18.50;;;;;27.52;43.71;101194.84;2375823;28;45506;-78
2022/08/18 18:56:44;;;;;;;;;21.75;21.50;;;;;27.49;43.23;101194.28;2383975;28;45218;-79
2022/08/18 18:58:03;;;;;;;;;19.25;18.25;;;;;27.49;43.63;101197.81;2385053;28;46352;-79
2022/08/18 18:59:48;;;;;;;;;15.75;15.75;;;;;27.45;43.87;101207.25;2384805;28;44707;-79
2022/08/18 19:01:02;;;;;;;;;21.75;18.50;;;;;27.41;44.16;101211.22;2385066;28;45452;-79
2022/08/18 19:02:39;;;;;;;;;22.50;20.00;;;;;27.36;44.12;101217.06;2384769;28;45302;-79
2022/08/18 19:03:58;;;;;;;;;21.50;21.25;;;;;27.32;44.07;101210.28;2383187;28;45665;-79
2022/08/18 19:05:21;;;;;;;;;20.75;19.25;;;;;27.30;44.36;101220.38;2379752;28;45379;-79
2022/08/18 19:06:37;;;;;;;;;20.75;20.00;;;;;27.29;44.01;101218.69;2380277;28;46345;-79
2022/08/18 19:08:02;;;;;;;;;19.50;19.25;;;;;27.27;44.26;101221.53;2383286;28;45530;-79
2022/08/18 19:09:37;;;;;;;;;15.75;15.50;;;;;27.24;44.21;101221.81;2378739;28;45918;-78
2022/08/18 19:11:17;;;;;;;;;20.75;18.75;;;;;27.21;45.27;101221.28;2376604;28;44772;-78
2022/08/18 19:12:42;;;;;;;;;20.75;19.75;;;;;27.19;44.93;101224.13;2382042;28;46487;-78
2022/08/18 19:13:59;;;;;;;;;19.00;19.00;;;;;27.15;45.21;101222.72;2375818;28;45182;-78
2022/08/18 19:15:13;;;;;;;;;24.00;22.75;;;;;27.15;45.51;101228.97;2379194;28;46347;-78
2022/08/18 19:16:30;;;;;;;;;24.75;24.50;;;;;27.14;45.19;101229.97;2372300;28;45524;-78
2022/08/18 19:17:48;;;;;;;;;23.50;21.75;;;;;27.11;46.00;101232.94;2374602;28;45436;-78
2022/08/18 19:19:06;;;;;;;;;26.25;24.50;;;;;27.06;45.31;101236.06;2377469;28;45385;-80
2022/08/18 19:20:21;;;;;;;;;21.00;19.75;;;;;27.05;45.63;101230.84;2369944;28;47020;-79
2022/08/18 19:21:33;;;;;;;;;22.00;20.25;;;;;27.01;46.09;101234.84;2376144;28;45340;-79
2022/08/18 19:22:56;;;;;;;;;27.50;24.75;;;;;27.00;46.39;101239.38;2379155;28;46458;-79
2022/08/18 19:24:40;;;;;;;;;24.00;22.25;;;;;26.96;46.45;101238.84;2383705;28;45280;-79
2022/08/18 19:25:54;;;;;;;;;23.25;22.75;;;;;26.94;46.90;101238.09;2370458;28;45473;-79
2022/08/18 19:27:14;;;;;;;;;21.75;21.00;;;;;26.92;46.11;101250.88;2384870;28;45274;-77
2022/08/18 19:28:36;;;;;;;;;24.25;21.75;;;;;26.90;46.09;101250.19;2384954;28;45193;-77
2022/08/18 19:29:48;;;;;;;;;23.25;19.75;;;;;26.88;46.50;101249.50;2383901;28;44557;-79
2022/08/18 19:31:07;;;;;;;;;24.25;21.75;;;;;26.87;46.45;101247.78;2374731;28;45535;-76
2022/08/18 19:32:23;;;;;;;;;30.25;26.50;;;;;26.83;46.57;101251.78;2383295;28;45286;-78
2022/08/18 19:33:51;;;;;;;;;20.25;18.75;;;;;26.82;46.51;101253.63;2384729;28;45290;-78
2022/08/18 19:35:07;;;;;;;;;21.00;21.00;;;;;26.79;46.39;101262.03;2384399;28;45511;-79
2022/08/18 19:36:27;;;;;;;;;24.75;22.50;;;;;26.78;46.39;101254.06;2379233;28;45475;-79
2022/08/18 19:37:58;;;;;;;;;25.25;24.25;;;;;26.77;46.31;101265.84;2365301;28;45546;-78
2022/08/18 19:39:22;;;;;;;;;20.75;20.75;;;;;26.73;45.89;101265.28;2371254;28;45400;-80
2022/08/18 19:40:44;;;;;;;;;21.00;20.00;;;;;26.69;46.27;101264.72;2383233;28;45329;-79
2022/08/18 19:42:02;;;;;;;;;23.50;23.00;;;;;26.66;46.36;101265.03;2382913;28;45455;-77
2022/08/18 19:43:25;;;;;;;;;30.75;22.00;;;;;26.65;46.36;101265.16;2378974;28;44851;-78
2022/08/18 19:45:11;;;;;;;;;21.75;21.00;;;;;26.60;46.79;101268.28;2377714;28;46142;-78
2022/08/18 19:46:42;;;;;;;;;22.75;21.75;;;;;26.59;46.43;101269.28;2375930;28;44859;-78
2022/08/18 19:47:54;;;;;;;;;22.25;19.50;;;;;26.60;46.72;101270.97;2383057;28;45266;-78
2022/08/18 19:49:21;;;;;;;;;23.75;22.00;;;;;26.56;46.24;101280.34;2381252;28;45250;-78
2022/08/18 19:50:51;;;;;;;;;26.50;21.50;;;;;26.54;46.97;101276.94;2379502;28;45455;-78
2022/08/18 19:52:36;;;;;;;;;28.25;22.00;;;;;26.48;46.71;101271.13;2381888;28;45492;-79
2022/08/18 19:53:55;;;;;;;;;23.25;20.50;;;;;26.47;46.63;101280.19;2378499;28;45404;-80
2022/08/18 19:55:14;;;;;;;;;26.50;22.00;;;;;26.44;46.37;101279.66;2382478;28;45491;-79
2022/08/18 19:56:52;;;;;;;;;23.50;21.00;;;;;26.42;46.46;101285.16;2383017;28;45655;-79
2022/08/18 19:58:28;;;;;;;;;17.25;15.75;;;;;26.39;46.63;101280.06;2379297;28;45377;-78
2022/08/18 19:59:56;;;;;;;;;24.00;22.00;;;;;26.37;46.48;101276.66;2375320;28;45493;-78
2022/08/18 20:01:33;;;;;;;;;21.25;17.75;;;;;26.36;46.85;101283.03;2377997;28;46339;-78
2022/08/18 20:03:06;;;;;;;;;20.50;19.50;;;;;26.36;46.72;101283.03;2384497;28;46497;-78
2022/08/18 20:04:25;;;;;;;;;23.00;20.25;;;;;26.33;47.37;101284.16;2384703;28;45186;-78
2022/08/18 20:06:07;;;;;;;;;28.50;21.50;;;;;26.32;47.45;101281.63;2384262;28;46320;-78
2022/08/18 20:07:36;;;;;;;;;26.00;24.25;;;;;26.29;47.27;101290.84;2375616;28;45453;-78
2022/08/18 20:09:07;;;;;;;;;17.25;16.25;;;;;26.26;46.96;101291.09;2375331;28;46319;-78
2022/08/18 20:10:33;;;;;;;;;22.75;22.75;;;;;26.25;47.39;101290.25;2375347;28;45747;-78
2022/08/18 20:11:55;;;;;;;;;22.25;19.50;;;;;26.25;46.96;101286.72;2377584;28;46428;-78
2022/08/18 20:13:32;;;;;;;;;19.50;18.75;;;;;26.23;46.93;101286.84;2383629;28;44621;-78
2022/08/18 20:15:01;;;;;;;;;21.75;18.75;;;;;26.21;47.45;101280.75;2376622;28;46668;-78
2022/08/18 20:16:23;;;;;;;;;28.00;25.25;;;;;26.20;47.54;101289.00;2383939;28;44827;-78
2022/08/18 20:17:56;;;;;;;;;22.75;21.50;;;;;26.15;47.18;101286.72;2379966;28;46500;-78
2022/08/18 20:19:31;;;;;;;;;24.25;22.25;;;;;26.11;47.64;101285.28;2384493;28;45223;-77
2022/08/18 20:21:02;;;;;;;;;24.75;22.75;;;;;26.06;47.90;101291.94;2373720;28;46504;-78
2022/08/18 20:22:22;;;;;;;;;22.50;21.00;;;;;26.04;48.03;101282.31;2382770;28;44849;-78
2022/08/18 20:23:37;;;;;;;;;25.50;20.00;;;;;26.00;47.50;101295.19;2383883;28;45406;-78
2022/08/18 20:24:53;;;;;;;;;25.25;23.00;;;;;25.99;48.07;101293.50;2382626;28;45529;-78
2022/08/18 20:26:04;;;;;;;;;24.50;23.25;;;;;25.96;47.61;101294.63;2383274;28;45851;-77
2022/08/18 20:27:14;;;;;;;;;26.75;26.25;;;;;25.96;47.68;101293.78;2384256;28;45235;-77
2022/08/18 20:28:36;;;;;;;;;23.25;21.75;;;;;25.92;47.64;101290.53;2382278;28;45322;-78
2022/08/18 20:29:47;;;;;;;;;23.25;20.00;;;;;25.90;47.91;101284.44;2380736;28;45272;-77
2022/08/18 20:31:21;;;;;;;;;25.25;22.25;;;;;25.89;48.05;101285.41;2384160;28;45436;-77
2022/08/18 20:32:34;;;;;;;;;22.50;20.75;;;;;25.90;48.07;101283.56;2381338;28;45508;-78
2022/08/18 20:34:12;;;;;;;;;24.00;19.25;;;;;25.89;48.10;101292.63;2384073;28;46472;-78
2022/08/18 20:35:31;;;;;;;;;22.25;21.00;;;;;25.88;47.96;101296.31;2380144;28;45507;-78
2022/08/18 20:36:43;;;;;;;;;24.25;21.25;;;;;25.86;48.61;101293.75;2384354;28;45301;-78
2022/08/18 20:38:18;;;;;;;;;22.00;21.00;;;;;25.87;48.67;101294.63;2382177;28;45372;-78
2022/08/18 20:39:28;;;;;;;;;19.00;12.50;;;;;25.84;48.11;101296.59;2383172;28;46457;-78
2022/08/18 20:40:46;;;;;;;;;21.00;18.50;;;;;25.83;48.56;101294.88;2383728;28;45369;-78
2022/08/18 20:42:02;;;;;;;;;25.75;23.25;;;;;25.81;48.69;101294.16;2383523;28;45184;-78
2022/08/18 20:43:27;;;;;;;;;25.75;23.00;;;;;25.82;47.91;101303.97;2383634;28;45214;-78
2022/08/18 20:44:56;;;;;;;;;22.00;20.50;;;;;25.79;48.29;101304.22;2384056;28;48435;-78
2022/08/18 20:46:16;;;;;;;;;23.75;22.75;;;;;25.76;48.00;101301.81;2375869;28;45349;-78
2022/08/18 20:47:51;;;;;;;;;19.00;18.25;;;;;25.72;48.40;101298.56;2375173;28;46624;-78
2022/08/18 20:49:23;;;;;;;;;19.75;19.00;;;;;25.67;48.42;101294.53;2379472;28;45408;-78
2022/08/18 20:50:58;;;;;;;;;21.25;21.25;;;;;25.65;48.53;101308.13;2383221;28;45687;-78
2022/08/18 20:52:22;;;;;;;;;23.50;20.75;;;;;25.63;48.60;101307.44;2376381;28;45404;-78
2022/08/18 20:53:50;;;;;;;;;21.25;18.50;;;;;25.62;48.82;101305.72;2374909;28;48481;-77
2022/08/18 20:55:04;;;;;;;;;23.75;21.50;;;;;25.61;48.64;101307.53;2381777;28;45313;-78
2022/08/18 20:56:42;;;;;;;;;21.75;17.50;;;;;25.61;48.45;101312.94;2380907;28;45408;-78
2022/08/18 20:57:58;;;;;;;;;20.50;16.50;;;;;25.60;48.32;101313.06;2381442;28;45293;-78
2022/08/18 20:59:21;;;;;;;;;25.50;21.50;;;;;25.59;48.15;101308.66;2381295;28;45494;-78
2022/08/18 21:00:34;;;;;;;;;25.25;19.50;;;;;25.58;48.61;101312.38;2382884;28;45510;-78
2022/08/18 21:01:53;;;;;;;;;17.50;16.50;;;;;25.57;48.51;101310.66;2380249;28;45444;-78
2022/08/18 21:03:11;;;;;;;;;18.75;16.75;;;;;25.57;48.42;101310.66;2384177;28;44704;-78
2022/08/18 21:04:51;;;;;;;;;20.00;19.25;;;;;25.58;48.83;101317.75;2383576;28;45370;-78
2022/08/18 21:06:03;;;;;;;;;25.75;24.25;;;;;25.58;48.46;101320.44;2377414;28;45342;-77
2022/08/18 21:07:24;;;;;;;;;17.25;15.50;;;;;25.56;48.70;101308.97;2383720;28;46492;-77
2022/08/18 21:08:36;;;;;;;;;19.75;18.25;;;;;25.54;48.95;101319.00;2374963;28;45179;-78
2022/08/18 21:09:53;;;;;;;;;16.75;15.25;;;;;25.51;48.40;101322.78;2379764;28;46391;-78
2022/08/18 21:11:42;;;;;;;;;24.50;22.50;;;;;25.50;48.52;101327.34;2375852;28;44784;-78
2022/08/18 21:12:55;;;;;;;;;17.50;16.50;;;;;25.46;48.62;101319.69;2379255;28;45634;-77
2022/08/18 21:14:06;;;;;;;;;20.75;17.75;;;;;25.44;48.73;101319.81;2379224;28;45390;-78
2022/08/18 21:15:19;;;;;;;;;24.50;20.25;;;;;25.42;48.48;101324.47;2378336;28;46669;-77
2022/08/18 21:16:42;;;;;;;;;20.75;16.50;;;;;25.40;48.66;101326.44;2379171;28;45250;-78
2022/08/18 21:17:57;;;;;;;;;18.25;16.50;;;;;25.34;48.88;101322.44;2374650;28;45358;-78
2022/08/18 21:19:16;;;;;;;;;25.00;19.25;;;;;25.32;48.81;101334.34;2381028;28;45468;-78
2022/08/18 21:20:28;;;;;;;;;19.50;16.50;;;;;25.28;48.92;101334.63;2380611;28;45360;-78
2022/08/18 21:21:44;;;;;;;;;23.75;19.75;;;;;25.25;49.21;101328.66;2379891;28;45460;-78
2022/08/18 21:23:11;;;;;;;;;20.25;17.25;;;;;25.21;49.09;101333.41;2379915;28;46212;-78
2022/08/18 21:24:27;;;;;;;;;20.50;19.00;;;;;25.19;49.12;101327.31;2378236;28;45420;-77
2022/08/18 21:25:52;;;;;;;;;24.25;21.50;;;;;25.16;49.40;101331.13;2383924;28;45365;-78
2022/08/18 21:27:22;;;;;;;;;21.25;18.00;;;;;25.14;49.95;101330.41;2374776;28;44743;-78
2022/08/18 21:28:38;;;;;;;;;16.75;15.00;;;;;25.14;49.34;101326.88;2381726;28;46759;-78
2022/08/18 21:29:50;;;;;;;;;18.25;16.25;;;;;25.13;50.07;101326.03;2380382;28;45484;-78
2022/08/18 21:31:21;;;;;;;;;22.25;17.50;;;;;25.12;49.61;101329.72;2382199;28;45496;-78
2022/08/18 21:32:34;;;;;;;;;19.75;15.50;;;;;25.11;49.41;101332.53;2381989;28;45416;-77
2022/08/18 21:33:52;;;;;;;;;22.75;18.75;;;;;25.09;49.49;101331.81;2382058;28;46799;-78
2022/08/18 21:35:37;;;;;;;;;20.25;15.50;;;;;25.06;49.59;101335.63;2379431;28;45912;-78
2022/08/18 21:36:53;;;;;;;;;17.00;16.25;;;;;25.03;49.57;101339.44;2376260;28;46536;-77
2022/08/18 21:38:08;;;;;;;;;14.50;14.00;;;;;25.01;49.55;101343.22;2376745;28;45251;-78
2022/08/18 21:39:20;;;;;;;;;19.00;17.50;;;;;24.97;49.41;101341.75;2374616;28;46647;-78
2022/08/18 21:40:33;;;;;;;;;19.25;17.00;;;;;24.97;49.35;101347.97;2374852;28;45304;-78
2022/08/18 21:41:49;;;;;;;;;16.00;16.00;;;;;24.93;49.81;101350.09;2374963;28;45349;-77
2022/08/18 21:43:00;;;;;;;;;19.50;18.75;;;;;24.91;49.26;101346.69;2382522;28;44833;-78
2022/08/18 21:44:40;;;;;;;;;17.25;17.25;;;;;24.90;49.75;101349.47;2380671;28;45374;-78
2022/08/18 21:45:53;;;;;;;;;25.25;16.50;;;;;24.86;50.17;101348.06;2380907;28;45424;-78
2022/08/18 21:47:20;;;;;;;;;19.50;17.00;;;;;24.87;50.05;101358.66;2379927;28;46322;-78
2022/08/18 21:48:43;;;;;;;;;19.50;18.75;;;;;24.84;49.93;101361.63;2379280;28;44758;-78
2022/08/18 21:50:13;;;;;;;;;18.00;18.00;;;;;24.84;50.03;101359.78;2381903;28;45459;-78